Time;durP1;ratioP1;P1;durP2;ratioP2;P2;SDS_P1;SDS_P2;PMS_P1;PMS_P2;Temp;Humidity;BMP_temperature;BMP_pressure;BME280_temperature;BME280_humidity;BME280_pressure;Samples;Min_cycle;Max_cycle;Signal;HPM_P1;HPM_P2
2024/04/09 00:00:32;;;;;;;12.85;7.25;;;16.00;99.90;;;;;;5393719;26;20018;-70
2024/04/09 00:02:58;;;;;;;11.73;7.82;;;16.10;99.90;;;;;;5394516;26;19999;-70
2024/04/09 00:05:27;;;;;;;15.43;6.68;;;15.90;99.90;;;;;;5392097;26;20018;-70
2024/04/09 00:07:52;;;;;;;15.18;7.88;;;15.80;99.90;;;;;;5394057;26;20048;-70
2024/04/09 00:10:19;;;;;;;12.55;7.88;;;15.90;99.90;;;;;;5393640;26;20004;-70
2024/04/09 00:12:46;;;;;;;10.80;6.13;;;15.70;99.90;;;;;;5392223;26;20022;-70
2024/04/09 00:15:12;;;;;;;12.50;7.07;;;15.80;99.90;;;;;;5394757;26;20468;-70
2024/04/09 00:18:09;;;;;;;19.27;7.32;;;15.70;99.90;;;;;;5388672;26;20011;-70
2024/04/09 00:20:35;;;;;;;9.93;6.57;;;15.50;99.90;;;;;;5395681;26;20082;-70
2024/04/09 00:23:01;;;;;;;14.95;7.25;;;15.70;99.90;;;;;;5392207;26;21429;-70
2024/04/09 00:25:26;;;;;;;12.13;6.25;;;15.70;99.90;;;;;;5393475;26;19996;-70
2024/04/09 00:27:53;;;;;;;12.23;7.28;;;15.90;99.90;;;;;;5390932;26;20076;-70
2024/04/09 00:30:22;;;;;;;16.05;8.07;;;15.80;99.90;;;;;;5394448;26;20087;-70
2024/04/09 00:32:52;;;;;;;10.73;7.43;;;15.90;99.90;;;;;;5391912;26;20010;-70
2024/04/09 00:35:21;;;;;;;13.60;7.88;;;15.90;99.90;;;;;;5392340;26;20465;-70
2024/04/09 00:37:51;;;;;;;14.48;8.38;;;15.90;99.90;;;;;;5393183;26;20481;-70
2024/04/09 00:40:20;;;;;;;14.30;9.07;;;15.90;99.90;;;;;;5392706;26;20003;-70
2024/04/09 00:42:49;;;;;;;14.60;7.43;;;15.80;99.90;;;;;;5392207;26;20961;-70
2024/04/09 00:45:17;;;;;;;18.17;8.43;;;15.80;99.90;;;;;;5391518;26;20003;-70
2024/04/09 00:47:46;;;;;;;19.63;8.65;;;15.80;99.90;;;;;;5393242;26;20008;-70
2024/04/09 00:50:12;;;;;;;13.18;7.45;;;15.80;99.90;;;;;;5392172;26;20007;-70
2024/04/09 00:52:44;;;;;;;13.32;7.97;;;15.60;99.90;;;;;;5393143;26;20007;-70
2024/04/09 00:55:15;;;;;;;17.50;8.35;;;15.70;99.90;;;;;;5392942;26;20007;-70
2024/04/09 00:57:48;;;;;;;15.18;6.68;;;15.80;99.90;;;;;;5392756;26;20000;-70
2024/04/09 01:00:14;;;;;;;14.77;7.85;;;15.70;99.90;;;;;;5394206;26;20011;-70
2024/04/09 01:02:43;;;;;;;14.88;8.57;;;15.70;99.90;;;;;;5394623;26;20007;-70
2024/04/09 01:05:10;;;;;;;12.13;7.70;;;15.60;99.90;;;;;;5390803;26;20403;-70
2024/04/09 01:07:37;;;;;;;13.88;7.53;;;15.60;99.90;;;;;;5394089;26;20016;-70
2024/04/09 01:10:05;;;;;;;13.80;7.80;;;15.60;99.90;;;;;;5393998;26;20003;-70
2024/04/09 01:12:30;;;;;;;12.02;7.05;;;15.50;99.90;;;;;;5392389;26;20076;-71
2024/04/09 01:14:56;;;;;;;11.60;7.07;;;15.50;99.90;;;;;;5393284;26;20019;-70
2024/04/09 01:17:24;;;;;;;12.55;8.00;;;15.40;99.90;;;;;;5393950;26;20003;-70
2024/04/09 01:19:49;;;;;;;14.88;7.85;;;15.40;99.90;;;;;;5394331;26;20070;-70
2024/04/09 01:22:15;;;;;;;15.90;8.30;;;15.40;99.90;;;;;;5391642;26;20434;-70
2024/04/09 01:24:41;;;;;;;14.48;7.95;;;15.40;99.90;;;;;;5391119;26;20003;-70
2024/04/09 01:27:12;;;;;;;11.45;7.70;;;15.30;99.90;;;;;;5392087;26;21579;-70
2024/04/09 01:29:39;;;;;;;13.07;7.40;;;15.30;99.90;;;;;;5391978;26;20039;-70
2024/04/09 01:32:06;;;;;;;14.48;7.78;;;15.20;99.90;;;;;;5393083;26;20069;-70
2024/04/09 01:34:35;;;;;;;16.00;8.20;;;15.20;99.90;;;;;;5393748;26;20018;-70
2024/04/09 01:37:01;;;;;;;14.10;6.65;;;15.20;99.90;;;;;;5391963;26;19999;-70
2024/04/09 01:39:29;;;;;;;13.43;7.72;;;15.20;99.90;;;;;;5393153;26;20015;-70
2024/04/09 01:41:55;;;;;;;15.60;8.77;;;15.10;99.90;;;;;;5393189;26;20424;-70
2024/04/09 01:44:21;;;;;;;13.23;8.07;;;15.10;99.90;;;;;;5391284;26;20007;-70
2024/04/09 01:46:50;;;;;;;16.25;7.72;;;15.10;99.90;;;;;;5390617;26;20310;-70
2024/04/09 01:49:16;;;;;;;11.20;6.40;;;15.10;99.90;;;;;;5392009;26;20003;-70
2024/04/09 01:51:43;;;;;;;11.45;6.57;;;15.00;99.90;;;;;;5394506;26;20053;-70
2024/04/09 01:54:08;;;;;;;10.55;6.18;;;14.90;99.90;;;;;;5392599;26;20008;-70
2024/04/09 01:56:34;;;;;;;16.00;6.70;;;14.80;99.90;;;;;;5392735;26;20311;-70
2024/04/09 01:59:01;;;;;;;9.25;5.72;;;14.90;99.90;;;;;;5393387;26;20014;-70
2024/04/09 02:01:26;;;;;;;13.82;7.13;;;14.90;99.90;;;;;;5393410;26;20007;-70
2024/04/09 02:03:56;;;;;;;11.48;5.93;;;14.90;99.90;;;;;;5393980;26;20029;-70
2024/04/09 02:06:23;;;;;;;10.98;5.82;;;15.00;99.90;;;;;;5390108;26;20336;-70
2024/04/09 02:08:52;;;;;;;13.75;7.15;;;14.90;99.90;;;;;;5391307;26;20063;-70
2024/04/09 02:11:18;;;;;;;10.82;6.35;;;14.80;99.90;;;;;;5393346;26;20015;-70
2024/04/09 02:13:47;;;;;;;12.13;7.05;;;14.80;99.90;;;;;;5393462;26;20062;-70
2024/04/09 02:16:15;;;;;;;14.30;8.07;;;14.80;99.90;;;;;;5391950;26;20003;-70
2024/04/09 02:18:42;;;;;;;14.07;7.90;;;14.80;99.90;;;;;;5388872;26;20023;-70
2024/04/09 02:21:09;;;;;;;14.52;7.30;;;14.90;99.90;;;;;;5392159;26;20011;-70
2024/04/09 02:23:41;;;;;;;16.25;8.75;;;14.90;99.90;;;;;;5391646;26;20035;-70
2024/04/09 02:26:07;;;;;;;14.25;7.15;;;15.00;99.90;;;;;;5390863;26;20564;-70
2024/04/09 02:28:33;;;;;;;18.10;9.75;;;15.00;99.90;;;;;;5391452;26;20014;-70
2024/04/09 02:30:59;;;;;;;12.30;7.22;;;15.00;99.90;;;;;;5392494;26;20064;-70
2024/04/09 02:33:25;;;;;;;12.18;7.05;;;14.90;99.90;;;;;;5390716;26;20011;-70
2024/04/09 02:36:01;;;;;;;13.60;9.50;;;14.90;99.90;;;;;;5390532;26;20015;-70
2024/04/09 02:38:30;;;;;;;12.05;7.00;;;15.00;99.90;;;;;;5392217;26;20015;-70
2024/04/09 02:40:56;;;;;;;18.67;8.20;;;15.00;99.90;;;;;;5391970;26;20011;-70
2024/04/09 02:43:23;;;;;;;12.43;7.78;;;15.00;99.90;;;;;;5392650;26;20014;-70
2024/04/09 02:45:49;;;;;;;16.60;8.23;;;15.00;99.90;;;;;;5391510;26;20007;-70
2024/04/09 02:48:16;;;;;;;14.55;7.85;;;15.00;99.90;;;;;;5391515;26;20007;-70
2024/04/09 02:50:42;;;;;;;16.73;8.55;;;14.90;99.90;;;;;;5392488;26;20985;-70
2024/04/09 02:53:12;;;;;;;13.63;8.85;;;15.00;99.90;;;;;;5390464;26;20100;-70
2024/04/09 02:55:38;;;;;;;14.80;9.68;;;14.90;99.90;;;;;;5391828;26;20027;-70
2024/04/09 02:58:03;;;;;;;15.23;7.45;;;14.70;99.90;;;;;;5390344;26;20110;-70
2024/04/09 03:00:30;;;;;;;14.15;7.10;;;14.60;99.90;;;;;;5390691;26;20008;-70
2024/04/09 03:02:58;;;;;;;13.88;9.43;;;14.70;99.90;;;;;;5382191;26;20008;-71
2024/04/09 03:05:33;;;;;;;12.10;8.10;;;14.80;99.90;;;;;;5383533;26;20015;-70
2024/04/09 03:07:59;;;;;;;14.18;9.23;;;14.80;99.90;;;;;;5381890;26;20022;-71
2024/04/09 03:10:33;;;;;;;14.27;8.27;;;14.80;99.90;;;;;;5386978;26;19999;-70
2024/04/09 03:12:58;;;;;;;14.27;8.63;;;14.90;99.90;;;;;;5388865;26;20068;-70
2024/04/09 03:15:24;;;;;;;17.10;8.48;;;14.70;99.90;;;;;;5387522;26;20403;-70
2024/04/09 03:17:51;;;;;;;13.05;7.72;;;14.60;99.90;;;;;;5385063;26;20567;-70
2024/04/09 03:20:17;;;;;;;12.82;7.85;;;14.50;99.90;;;;;;5387436;26;19999;-71
2024/04/09 03:22:42;;;;;;;15.82;8.18;;;14.50;99.90;;;;;;5385191;26;20354;-70
2024/04/09 03:25:08;;;;;;;16.05;8.27;;;14.60;99.90;;;;;;5387414;26;20497;-71
2024/04/09 03:27:35;;;;;;;16.88;7.68;;;14.50;99.90;;;;;;5386193;26;21649;-70
2024/04/09 03:30:03;;;;;;;14.15;7.63;;;14.50;99.90;;;;;;5389431;26;20067;-70
2024/04/09 03:32:28;;;;;;;12.13;6.93;;;14.60;99.90;;;;;;5388671;26;20003;-70
2024/04/09 03:34:54;;;;;;;14.30;7.03;;;14.50;99.90;;;;;;5390607;26;20018;-70
2024/04/09 03:37:20;;;;;;;13.40;7.28;;;14.50;99.90;;;;;;5388153;26;20004;-70
2024/04/09 03:39:45;;;;;;;11.18;7.40;;;14.40;99.90;;;;;;5383606;26;20839;-71
2024/04/09 03:42:11;;;;;;;16.02;7.68;;;14.40;99.90;;;;;;5388039;26;20000;-70
2024/04/09 03:44:37;;;;;;;14.80;7.25;;;14.30;99.90;;;;;;5388410;26;20043;-70
2024/04/09 03:47:05;;;;;;;12.80;7.47;;;14.30;99.90;;;;;;5387408;26;20004;-71
2024/04/09 03:49:33;;;;;;;14.52;8.60;;;14.40;99.90;;;;;;5388054;26;20117;-70
2024/04/09 03:51:59;;;;;;;10.98;5.90;;;14.30;99.90;;;;;;5382018;26;20095;-70
2024/04/09 03:54:25;;;;;;;17.23;6.22;;;14.30;99.90;;;;;;5384226;26;20003;-70
2024/04/09 03:56:50;;;;;;;16.58;7.28;;;14.40;99.90;;;;;;5384898;26;20007;-70
2024/04/09 03:59:16;;;;;;;11.40;6.47;;;14.40;99.90;;;;;;5384706;26;20003;-71
2024/04/09 04:01:42;;;;;;;18.05;7.65;;;14.50;99.90;;;;;;5382872;26;20000;-70
2024/04/09 04:04:08;;;;;;;13.95;6.55;;;14.30;99.90;;;;;;5383034;26;20047;-70
2024/04/09 04:06:33;;;;;;;12.55;7.07;;;14.30;99.90;;;;;;5384519;26;20003;-71
2024/04/09 04:08:59;;;;;;;15.07;8.77;;;14.20;99.90;;;;;;5382115;26;20503;-70
2024/04/09 04:11:25;;;;;;;11.77;7.57;;;14.30;99.90;;;;;;5383056;26;20011;-70
2024/04/09 04:13:51;;;;;;;17.98;8.10;;;14.30;99.90;;;;;;5383291;26;20077;-70
2024/04/09 04:16:18;;;;;;;14.93;8.07;;;14.30;99.90;;;;;;5380810;26;20434;-70
2024/04/09 04:18:45;;;;;;;14.07;7.28;;;14.40;99.90;;;;;;5383053;26;20007;-70
2024/04/09 04:21:23;;;;;;;16.25;9.52;;;14.30;99.90;;;;;;5381502;26;20008;-71
2024/04/09 04:23:51;;;;;;;14.80;8.95;;;14.30;99.90;;;;;;5382120;26;20004;-70
2024/04/09 04:26:21;;;;;;;12.27;7.25;;;14.40;99.90;;;;;;5384671;26;20011;-70
2024/04/09 04:28:49;;;;;;;12.00;8.18;;;14.20;99.90;;;;;;5382269;26;20426;-70
2024/04/09 04:31:16;;;;;;;17.70;8.55;;;14.00;99.90;;;;;;5382351;26;20023;-70
2024/04/09 04:33:43;;;;;;;13.60;9.07;;;13.90;99.90;;;;;;5383460;26;20012;-70
2024/04/09 04:36:10;;;;;;;14.48;7.60;;;14.00;99.90;;;;;;5383386;26;20007;-70
2024/04/09 04:38:36;;;;;;;15.05;7.43;;;13.90;99.90;;;;;;5384199;26;20011;-70
2024/04/09 04:41:02;;;;;;;13.70;7.35;;;13.90;99.90;;;;;;5383230;26;20018;-70
2024/04/09 04:43:28;;;;;;;14.50;8.68;;;14.00;99.90;;;;;;5383066;26;19996;-71
2024/04/09 04:45:55;;;;;;;16.50;8.52;;;14.10;99.90;;;;;;5382011;26;20930;-70
2024/04/09 04:48:21;;;;;;;18.60;8.93;;;14.10;99.90;;;;;;5384193;26;20004;-71
2024/04/09 04:50:47;;;;;;;14.35;7.45;;;14.10;99.90;;;;;;5383409;26;20309;-70
2024/04/09 04:53:14;;;;;;;13.50;7.35;;;14.10;99.90;;;;;;5383979;26;20003;-70
2024/04/09 04:55:39;;;;;;;12.80;7.30;;;14.10;99.90;;;;;;5384976;26;20022;-70
2024/04/09 04:58:06;;;;;;;11.57;7.18;;;14.20;99.90;;;;;;5383441;26;19995;-71
2024/04/09 05:00:36;;;;;;;14.02;7.80;;;14.10;99.90;;;;;;5382467;26;20015;-71
2024/04/09 05:03:01;;;;;;;15.65;8.55;;;14.10;99.90;;;;;;5382102;26;20373;-70
2024/04/09 05:05:28;;;;;;;15.55;8.30;;;14.10;99.90;;;;;;5380317;26;19999;-70
2024/04/09 05:07:55;;;;;;;12.52;7.30;;;14.30;99.90;;;;;;5381749;26;20418;-70
2024/04/09 05:10:21;;;;;;;13.95;9.45;;;14.30;99.90;;;;;;5383268;26;21495;-71
2024/04/09 05:12:49;;;;;;;13.32;7.68;;;14.30;99.90;;;;;;5386367;26;20548;-70
2024/04/09 05:15:16;;;;;;;13.68;8.55;;;14.10;99.90;;;;;;5380722;26;20003;-70
2024/04/09 05:17:43;;;;;;;17.17;8.52;;;14.20;99.90;;;;;;5382344;26;20026;-70
2024/04/09 05:20:12;;;;;;;18.42;7.30;;;14.20;99.90;;;;;;5384073;26;20557;-70
2024/04/09 05:22:44;;;;;;;11.23;7.35;;;14.20;99.90;;;;;;5383110;26;20000;-69
2024/04/09 05:25:10;;;;;;;19.00;8.20;;;14.10;99.90;;;;;;5379668;26;20003;-70
2024/04/09 05:27:36;;;;;;;19.50;9.00;;;14.10;99.90;;;;;;5378289;26;20008;-70
2024/04/09 05:30:02;;;;;;;15.18;9.18;;;14.30;99.90;;;;;;5385450;26;19999;-71
2024/04/09 05:32:28;;;;;;;15.25;8.38;;;14.40;99.90;;;;;;5381912;26;20003;-70
2024/04/09 05:34:54;;;;;;;18.60;8.57;;;14.40;99.90;;;;;;5381664;26;20018;-70
2024/04/09 05:37:20;;;;;;;17.70;10.13;;;14.50;99.90;;;;;;5378894;26;20007;-70
2024/04/09 05:39:47;;;;;;;17.52;8.80;;;14.60;99.90;;;;;;5380221;26;20010;-70
2024/04/09 05:42:13;;;;;;;17.25;7.75;;;14.70;99.90;;;;;;5382393;26;20011;-70
2024/04/09 05:44:39;;;;;;;14.93;7.45;;;14.70;99.90;;;;;;5381061;26;20041;-70
2024/04/09 05:47:05;;;;;;;11.80;6.68;;;14.70;99.90;;;;;;5380754;26;20031;-70
2024/04/09 05:49:31;;;;;;;17.70;7.32;;;14.70;99.90;;;;;;5383340;26;20505;-70
2024/04/09 05:51:57;;;;;;;16.38;6.22;;;14.70;99.90;;;;;;5378907;26;21568;-70
2024/04/09 05:54:23;;;;;;;12.02;6.57;;;14.70;99.90;;;;;;5380977;26;20004;-70
2024/04/09 05:56:51;;;;;;;13.35;7.60;;;14.60;99.90;;;;;;5378431;26;20711;-70
2024/04/09 05:59:18;;;;;;;17.35;7.93;;;14.60;99.90;;;;;;5382340;26;20018;-70
2024/04/09 06:01:44;;;;;;;13.98;6.78;;;14.70;99.90;;;;;;5382357;26;20776;-70
2024/04/09 06:04:10;;;;;;;12.90;7.72;;;14.80;99.90;;;;;;5378888;26;19999;-70
2024/04/09 06:06:35;;;;;;;13.93;7.38;;;14.80;99.90;;;;;;5379673;26;20776;-72
2024/04/09 06:09:02;;;;;;;11.82;5.90;;;14.90;99.90;;;;;;5380120;26;20084;-71
2024/04/09 06:11:28;;;;;;;13.80;6.75;;;15.60;99.90;;;;;;5380761;26;20023;-71
2024/04/09 06:13:54;;;;;;;11.90;6.22;;;15.70;99.90;;;;;;5380572;26;19999;-70
2024/04/09 06:16:20;;;;;;;10.10;6.25;;;15.50;99.90;;;;;;5379967;26;20008;-71
2024/04/09 06:18:46;;;;;;;17.42;6.95;;;15.40;99.90;;;;;;5382928;26;20008;-70
2024/04/09 06:21:11;;;;;;;11.70;5.90;;;15.40;99.90;;;;;;5382107;26;20000;-70
2024/04/09 06:23:37;;;;;;;14.55;7.90;;;15.40;99.90;;;;;;5379425;26;20019;-70
2024/04/09 06:26:04;;;;;;;13.05;7.50;;;15.30;99.90;;;;;;5381574;26;20017;-70
2024/04/09 06:28:29;;;;;;;15.40;8.15;;;15.30;99.90;;;;;;5381627;26;20003;-70
2024/04/09 06:30:55;;;;;;;17.13;7.53;;;15.30;99.90;;;;;;5378294;26;20085;-70
2024/04/09 06:33:22;;;;;;;15.65;8.77;;;15.30;99.90;;;;;;5383668;26;20412;-70
2024/04/09 06:35:48;;;;;;;13.65;7.70;;;15.40;99.90;;;;;;5381354;26;20011;-70
2024/04/09 06:38:16;;;;;;;13.02;7.90;;;15.50;99.90;;;;;;5381216;26;20936;-70
2024/04/09 06:40:42;;;;;;;16.75;7.88;;;15.60;99.90;;;;;;5379550;26;20486;-71
2024/04/09 06:43:07;;;;;;;18.52;9.40;;;15.70;99.90;;;;;;5378915;26;20007;-70
2024/04/09 06:45:33;;;;;;;13.32;7.55;;;15.80;99.90;;;;;;5382948;26;20022;-70
2024/04/09 06:47:59;;;;;;;12.00;7.55;;;16.00;99.90;;;;;;5382701;26;20575;-70
2024/04/09 06:50:25;;;;;;;13.68;6.00;;;16.00;99.90;;;;;;5383884;26;20096;-70
2024/04/09 06:52:51;;;;;;;10.45;7.03;;;16.80;99.90;;;;;;5383801;26;20050;-71
2024/04/09 06:55:17;;;;;;;15.07;5.93;;;17.60;99.90;;;;;;5385431;26;20007;-70
2024/04/09 06:57:44;;;;;;;10.07;5.72;;;17.90;99.90;;;;;;5383143;26;20045;-71
2024/04/09 07:00:11;;;;;;;13.38;5.35;;;18.10;99.90;;;;;;5384721;26;20004;-70
2024/04/09 07:02:36;;;;;;;11.82;6.93;;;17.90;99.90;;;;;;5386335;26;20496;-70
2024/04/09 07:05:02;;;;;;;38.40;10.05;;;17.20;99.90;;;;;;5384381;26;20019;-70
2024/04/09 07:07:29;;;;;;;83.57;14.20;;;17.50;99.90;;;;;;5384313;26;20472;-70
2024/04/09 07:09:54;;;;;;;13.40;6.50;;;17.50;99.90;;;;;;5385250;26;20008;-70
2024/04/09 07:12:20;;;;;;;10.05;6.43;;;17.30;99.90;;;;;;5383797;26;20022;-70
2024/04/09 07:14:46;;;;;;;11.80;6.60;;;16.90;99.90;;;;;;5383496;26;20018;-70
2024/04/09 07:17:11;;;;;;;24.23;8.48;;;16.60;99.90;;;;;;5382387;26;20008;-70
2024/04/09 07:19:37;;;;;;;11.23;7.25;;;16.70;99.90;;;;;;5382860;26;20023;-71
2024/04/09 07:22:03;;;;;;;37.65;9.30;;;16.60;99.90;;;;;;5383490;26;20066;-70
2024/04/09 07:24:28;;;;;;;12.13;7.40;;;16.80;99.90;;;;;;5384218;26;20354;-71
2024/04/09 07:26:54;;;;;;;14.95;8.32;;;16.50;99.90;;;;;;5383462;26;19995;-70
2024/04/09 07:29:20;;;;;;;8.75;6.28;;;16.50;99.90;;;;;;5384240;26;20017;-70
2024/04/09 07:31:45;;;;;;;12.75;7.15;;;16.30;99.90;;;;;;5383598;26;20424;-70
2024/04/09 07:34:11;;;;;;;15.48;7.28;;;16.20;99.90;;;;;;5385380;26;20007;-70
2024/04/09 07:36:37;;;;;;;12.40;6.82;;;16.30;99.90;;;;;;5382729;26;19991;-70
2024/04/09 07:39:03;;;;;;;14.40;6.60;;;16.30;99.90;;;;;;5384165;26;20524;-71
2024/04/09 07:41:29;;;;;;;11.18;7.15;;;16.20;99.90;;;;;;5383211;26;20000;-71
2024/04/09 07:43:55;;;;;;;19.05;5.50;;;16.30;99.90;;;;;;5384925;26;20011;-71
2024/04/09 07:46:22;;;;;;;15.35;6.28;;;16.50;99.90;;;;;;5380702;26;20051;-71
2024/04/09 07:48:48;;;;;;;13.15;5.93;;;16.50;99.90;;;;;;5383810;26;20018;-71
2024/04/09 07:51:14;;;;;;;10.07;6.57;;;16.60;99.90;;;;;;5385285;26;20468;-70
2024/04/09 07:53:40;;;;;;;11.07;6.13;;;16.50;99.90;;;;;;5386910;26;20008;-69
2024/04/09 07:56:06;;;;;;;13.07;6.00;;;16.70;99.90;;;;;;5386190;26;20003;-70
2024/04/09 07:58:33;;;;;;;16.17;6.75;;;16.80;99.90;;;;;;5385193;26;20570;-70
2024/04/09 08:00:59;;;;;;;14.10;6.70;;;16.90;99.90;;;;;;5388651;26;20029;-70
2024/04/09 08:03:25;;;;;;;12.57;7.60;;;16.90;99.90;;;;;;5387745;26;20019;-70
2024/04/09 08:05:50;;;;;;;12.43;7.18;;;16.90;99.90;;;;;;5386012;26;20787;-71
2024/04/09 08:08:17;;;;;;;13.27;6.80;;;17.00;99.90;;;;;;5388381;26;20019;-70
2024/04/09 08:10:43;;;;;;;12.65;6.88;;;17.00;99.90;;;;;;5383967;26;20034;-70
2024/04/09 08:13:09;;;;;;;11.65;7.78;;;17.10;99.90;;;;;;5383802;26;20008;-70
2024/04/09 08:15:34;;;;;;;15.38;7.32;;;17.30;99.90;;;;;;5385874;26;20034;-70
2024/04/09 08:18:00;;;;;;;16.25;7.40;;;17.40;99.90;;;;;;5385458;26;20004;-70
2024/04/09 08:20:26;;;;;;;14.85;8.13;;;17.40;99.90;;;;;;5388498;26;19999;-70
2024/04/09 08:22:52;;;;;;;12.27;7.55;;;17.50;99.90;;;;;;5384935;26;19999;-70
2024/04/09 08:25:18;;;;;;;10.65;6.28;;;17.50;99.90;;;;;;5383483;26;20011;-69
2024/04/09 08:27:45;;;;;;;13.77;5.88;;;17.60;99.90;;;;;;5385517;26;20003;-70
2024/04/09 08:30:17;;;;;;;13.75;6.03;;;17.50;99.90;;;;;;5385004;26;20260;-71
2024/04/09 08:32:44;;;;;;;13.68;6.50;;;17.60;99.90;;;;;;5384647;26;20018;-71
2024/04/09 08:35:16;;;;;;;11.18;5.65;;;17.60;99.90;;;;;;5387218;26;20012;-71
2024/04/09 08:37:44;;;;;;;11.75;6.53;;;17.90;99.90;;;;;;5386564;26;20003;-71
2024/04/09 08:40:10;;;;;;;10.75;6.07;;;17.90;99.90;;;;;;5386101;26;20755;-71
2024/04/09 08:42:38;;;;;;;16.23;5.88;;;17.90;99.90;;;;;;5386977;26;20755;-72
2024/04/09 08:45:14;;;;;;;12.15;6.32;;;18.00;99.90;;;;;;5387823;26;20011;-70
2024/04/09 08:47:43;;;;;;;16.80;6.85;;;18.10;99.90;;;;;;5384781;26;20821;-71
2024/04/09 08:50:10;;;;;;;12.60;6.55;;;17.90;99.90;;;;;;5387996;26;20007;-70
2024/04/09 08:52:36;;;;;;;11.07;6.63;;;18.20;99.90;;;;;;5386688;26;20031;-70
2024/04/09 08:55:08;;;;;;;16.45;6.40;;;19.10;99.90;;;;;;5386656;26;20054;-70
2024/04/09 08:57:34;;;;;;;11.50;5.90;;;19.70;99.90;;;;;;5380814;26;20007;-70
2024/04/09 09:00:00;;;;;;;12.95;6.50;;;19.50;99.90;;;;;;5382511;26;20014;-70
2024/04/09 09:02:27;;;;;;;12.25;5.93;;;19.40;99.90;;;;;;5383780;26;20004;-70
2024/04/09 09:04:52;;;;;;;12.80;5.75;;;19.60;99.90;;;;;;5382859;26;20023;-70
2024/04/09 09:07:19;;;;;;;12.10;6.35;;;19.50;99.90;;;;;;5381614;26;20461;-70
2024/04/09 09:09:46;;;;;;;18.83;7.13;;;19.90;99.90;;;;;;5386142;26;19998;-71
2024/04/09 09:12:12;;;;;;;14.07;6.05;;;19.70;99.90;;;;;;5381494;26;20008;-70
2024/04/09 09:14:48;;;;;;;13.18;6.55;;;20.30;99.90;;;;;;5378086;26;20511;-70
2024/04/09 09:17:15;;;;;;;13.05;6.88;;;20.40;99.90;;;;;;5381250;26;20117;-70
2024/04/09 09:19:41;;;;;;;10.50;5.65;;;20.50;99.90;;;;;;5384321;26;20003;-70
2024/04/09 09:22:12;;;;;;;14.65;5.75;;;20.40;99.90;;;;;;5384068;26;20422;-70
2024/04/09 09:24:38;;;;;;;15.13;6.10;;;21.10;99.90;;;;;;5380191;26;20015;-70
2024/04/09 09:27:08;;;;;;;12.77;5.82;;;21.40;99.40;;;;;;5378948;26;21247;-70
2024/04/09 09:29:34;;;;;;;9.93;5.32;;;21.80;99.00;;;;;;5382246;26;20408;-70
2024/04/09 09:32:01;;;;;;;11.85;5.22;;;20.90;99.40;;;;;;5381293;26;19995;-70
2024/04/09 09:34:27;;;;;;;10.98;6.53;;;20.70;99.90;;;;;;5378312;26;20108;-70
2024/04/09 09:36:58;;;;;;;9.90;5.78;;;19.90;99.90;;;;;;5382122;26;21558;-71
2024/04/09 09:39:27;;;;;;;18.60;5.80;;;20.20;99.90;;;;;;5383043;26;19995;-70
2024/04/09 09:41:56;;;;;;;10.98;5.45;;;19.90;99.90;;;;;;5382723;26;20004;-70
2024/04/09 09:44:24;;;;;;;22.33;6.38;;;19.80;99.90;;;;;;5382630;26;20076;-70
2024/04/09 09:46:52;;;;;;;12.52;5.55;;;20.00;99.90;;;;;;5380941;26;20372;-70
2024/04/09 09:49:19;;;;;;;13.90;4.85;;;19.80;99.90;;;;;;5382455;26;20008;-70
2024/04/09 09:51:45;;;;;;;12.60;6.07;;;19.90;99.90;;;;;;5380504;26;20015;-70
2024/04/09 09:54:11;;;;;;;12.20;6.53;;;20.10;99.90;;;;;;5381742;26;20004;-70
2024/04/09 09:56:38;;;;;;;12.50;5.93;;;20.30;99.80;;;;;;5380279;26;20703;-70
2024/04/09 09:59:06;;;;;;;14.88;7.35;;;20.20;99.90;;;;;;5378531;26;20516;-70
2024/04/09 10:01:34;;;;;;;14.30;6.55;;;20.20;99.90;;;;;;5382305;26;20011;-70
2024/04/09 10:03:59;;;;;;;12.88;6.93;;;20.50;99.90;;;;;;5382579;26;20814;-70
2024/04/09 10:06:28;;;;;;;8.30;4.63;;;20.60;99.90;;;;;;5382286;26;20003;-70
2024/04/09 10:08:54;;;;;;;9.20;6.38;;;20.60;99.90;;;;;;5381057;26;20022;-70
2024/04/09 10:11:22;;;;;;;12.32;6.50;;;20.70;99.90;;;;;;5381272;26;20011;-71
2024/04/09 10:13:51;;;;;;;13.63;6.90;;;20.50;99.90;;;;;;5381195;26;20010;-70
2024/04/09 10:16:18;;;;;;;14.73;6.30;;;20.50;99.90;;;;;;5381428;26;20000;-70
2024/04/09 10:18:46;;;;;;;9.63;5.35;;;20.60;99.90;;;;;;5380389;26;20022;-70
2024/04/09 10:21:14;;;;;;;10.63;6.30;;;20.70;99.60;;;;;;5385170;26;20015;-70
2024/04/09 10:23:41;;;;;;;12.13;6.50;;;20.70;99.90;;;;;;5381862;26;20004;-70
2024/04/09 10:26:10;;;;;;;16.80;5.38;;;21.00;99.90;;;;;;5383375;26;20031;-71
2024/04/09 10:28:37;;;;;;;15.50;6.03;;;21.00;99.90;;;;;;5385887;26;22387;-70
2024/04/09 10:31:04;;;;;;;10.63;5.53;;;20.90;99.90;;;;;;5383462;26;20058;-70
2024/04/09 10:33:35;;;;;;;10.65;5.30;;;21.00;99.90;;;;;;5383712;26;20011;-70
2024/04/09 10:36:08;;;;;;;16.85;5.82;;;21.20;99.90;;;;;;5383470;26;20022;-70
2024/04/09 10:38:37;;;;;;;9.35;5.82;;;21.20;99.90;;;;;;5386605;26;19999;-70
2024/04/09 10:41:04;;;;;;;12.63;6.32;;;21.20;99.90;;;;;;5384955;26;20003;-70
2024/04/09 10:43:30;;;;;;;17.08;6.25;;;21.20;99.50;;;;;;5383499;26;20011;-70
2024/04/09 10:45:57;;;;;;;15.10;6.18;;;21.30;99.60;;;;;;5385701;26;20004;-70
2024/04/09 10:48:23;;;;;;;13.48;5.38;;;21.40;99.70;;;;;;5382298;26;20018;-70
2024/04/09 10:50:53;;;;;;;9.60;6.25;;;21.50;99.80;;;;;;5383693;26;19999;-70
2024/04/09 10:53:19;;;;;;;9.02;5.45;;;21.40;99.00;;;;;;5383532;26;20003;-70
2024/04/09 10:55:45;;;;;;;9.68;5.47;;;21.70;99.10;;;;;;5384237;26;20069;-70
2024/04/09 10:58:15;;;;;;;8.10;4.60;;;21.80;99.40;;;;;;5382873;26;20671;-72
2024/04/09 11:00:43;;;;;;;9.32;4.40;;;22.00;99.00;;;;;;5382420;26;20008;-70
2024/04/09 11:03:09;;;;;;;9.82;5.18;;;22.30;99.30;;;;;;5384431;26;20108;-70
2024/04/09 11:05:35;;;;;;;10.77;5.28;;;22.40;99.80;;;;;;5383097;26;20037;-70
2024/04/09 11:08:01;;;;;;;10.15;5.55;;;22.40;98.70;;;;;;5383125;26;20007;-70
2024/04/09 11:10:28;;;;;;;8.52;4.97;;;22.50;99.20;;;;;;5384931;26;20014;-70
2024/04/09 11:12:54;;;;;;;10.00;5.65;;;22.50;98.40;;;;;;5384023;26;20019;-70
2024/04/09 11:15:20;;;;;;;19.83;5.63;;;22.50;99.60;;;;;;5383514;26;19999;-70
2024/04/09 11:17:46;;;;;;;16.15;4.82;;;22.60;99.30;;;;;;5385581;26;20092;-70
2024/04/09 11:20:18;;;;;;;10.13;5.65;;;22.60;99.20;;;;;;5383897;26;20011;-70
2024/04/09 11:22:49;;;;;;;11.35;4.47;;;22.20;98.60;;;;;;5383649;26;20003;-71
2024/04/09 11:25:20;;;;;;;12.75;5.45;;;22.40;99.30;;;;;;5384230;26;20003;-70
2024/04/09 11:27:50;;;;;;;9.02;4.57;;;22.60;99.30;;;;;;5385177;26;20019;-70
2024/04/09 11:30:29;;;;;;;8.20;4.85;;;22.90;99.00;;;;;;5382759;26;20018;-70
2024/04/09 11:32:56;;;;;;;10.88;5.05;;;22.90;98.70;;;;;;5383807;26;20167;-70
2024/04/09 11:35:23;;;;;;;7.57;4.00;;;22.80;98.70;;;;;;5383408;26;20021;-70
2024/04/09 11:37:57;;;;;;;6.82;3.65;;;23.00;97.70;;;;;;5384363;26;21528;-70
2024/04/09 11:40:24;;;;;;;7.57;3.47;;;23.40;98.20;;;;;;5384840;26;20007;-70
2024/04/09 11:42:54;;;;;;;22.00;3.10;;;23.50;97.90;;;;;;5381963;26;20040;-70
2024/04/09 11:45:24;;;;;;;7.35;3.00;;;23.60;96.50;;;;;;5382433;26;20011;-70
2024/04/09 11:47:50;;;;;;;7.72;3.03;;;23.70;96.50;;;;;;5383745;26;20003;-70
2024/04/09 11:50:16;;;;;;;5.47;2.60;;;23.90;96.00;;;;;;5383230;26;20051;-70
2024/04/09 11:52:42;;;;;;;5.22;2.90;;;24.00;95.30;;;;;;5383674;26;20295;-71
2024/04/09 11:55:09;;;;;;;7.75;2.83;;;24.00;96.40;;;;;;5385074;26;20074;-70
2024/04/09 11:57:40;;;;;;;10.30;3.10;;;24.00;95.50;;;;;;5382752;26;20018;-72
2024/04/09 12:00:07;;;;;;;5.68;2.38;;;24.00;95.60;;;;;;5383200;26;20014;-69
2024/04/09 12:02:33;;;;;;;3.67;2.05;;;23.90;94.80;;;;;;5377721;26;20098;-70
2024/04/09 12:04:59;;;;;;;7.72;2.78;;;24.00;94.00;;;;;;5379182;26;20011;-70
2024/04/09 12:07:24;;;;;;;4.72;1.67;;;24.30;94.60;;;;;;5379416;26;20016;-70
2024/04/09 12:09:50;;;;;;;7.05;1.90;;;24.40;92.30;;;;;;5382296;26;19999;-70
2024/04/09 12:12:17;;;;;;;8.65;2.63;;;24.40;92.00;;;;;;5381755;26;20411;-70
2024/04/09 12:14:42;;;;;;;13.80;3.58;;;24.30;92.00;;;;;;5381512;26;20054;-70
2024/04/09 12:17:08;;;;;;;4.78;2.13;;;24.50;92.10;;;;;;5381197;26;20026;-70
2024/04/09 12:19:37;;;;;;;14.52;2.97;;;24.60;91.80;;;;;;5381827;26;20018;-70
2024/04/09 12:22:03;;;;;;;7.28;2.08;;;24.70;91.50;;;;;;5380539;26;20115;-70
2024/04/09 12:24:31;;;;;;;8.85;2.40;;;24.80;90.40;;;;;;5379578;26;20011;-70
2024/04/09 12:27:00;;;;;;;6.32;2.25;;;24.80;89.50;;;;;;5383623;26;20461;-70
2024/04/09 12:29:28;;;;;;;6.88;1.30;;;24.80;90.40;;;;;;5381111;26;20007;-70
2024/04/09 12:31:54;;;;;;;6.22;2.03;;;24.70;90.30;;;;;;5379219;26;20084;-69
2024/04/09 12:34:21;;;;;;;5.25;2.10;;;24.40;90.00;;;;;;5380980;26;20014;-69
2024/04/09 12:36:47;;;;;;;6.38;2.10;;;24.20;91.00;;;;;;5381323;26;20016;-69